Time;durP1;ratioP1;P1;durP2;ratioP2;P2;SDS_P1;SDS_P2;PMS_P1;PMS_P2;Temp;Humidity;BMP_temperature;BMP_pressure;BME280_temperature;BME280_humidity;BME280_pressure;Samples;Min_cycle;Max_cycle;Signal;HPM_P1;HPM_P2
2022/10/01 00:00:09;;;;;;;;;;;;;;;15.30;62.06;95158.34;5067114;28;20028;-71
2022/10/01 00:02:35;;;;;;;;;;;;;;;14.80;63.57;95170.06;5069983;28;20016;-71
2022/10/01 00:05:00;;;;;;;;;;;;;;;14.49;65.66;95176.63;5067611;28;20009;-70
2022/10/01 00:07:26;;;;;;;;;;;;;;;14.40;65.93;95180.44;5070231;28;20485;-71
2022/10/01 00:09:51;;;;;;;;;;;;;;;14.32;66.22;95179.38;5066285;28;20013;-71
2022/10/01 00:12:16;;;;;;;;;;;;;;;14.64;65.58;95177.13;5070150;28;20013;-71
2022/10/01 00:14:43;;;;;;;;;;;;;;;15.03;64.52;95165.09;5068263;28;20172;-71
2022/10/01 00:17:08;;;;;;;;;;;;;;;14.81;64.26;95131.47;5068518;28;20139;-71
2022/10/01 00:19:33;;;;;;;;;;;;;;;14.35;66.68;95169.94;5068711;28;20018;-70
2022/10/01 00:21:58;;;;;;;;;;;;;;;14.97;64.44;95167.22;5069561;28;20036;-71
2022/10/01 00:24:24;;;;;;;;;;;;;;;14.87;64.57;95170.31;5069607;28;20009;-71
2022/10/01 00:26:49;;;;;;;;;;;;;;;14.72;65.37;95170.91;5084230;28;20112;-71
2022/10/01 00:29:14;;;;;;;;;;;;;;;14.47;65.69;95167.31;5068695;28;20021;-70
2022/10/01 00:31:39;;;;;;;;;;;;;;;14.36;66.42;95174.19;5067817;28;20013;-71
2022/10/01 00:34:05;;;;;;;;;;;;;;;14.86;65.36;95176.78;5070791;28;20041;-71
2022/10/01 00:36:31;;;;;;;;;;;;;;;14.93;64.47;95166.28;5069912;28;20469;-71
2022/10/01 00:38:59;;;;;;;;;;;;;;;14.60;65.37;95163.63;5069066;28;20020;-71
2022/10/01 00:41:25;;;;;;;;;;;;;;;14.93;64.54;95171.66;5071014;28;20024;-70
2022/10/01 00:43:54;;;;;;;;;;;;;;;15.12;63.94;95171.16;5071941;28;20013;-71
2022/10/01 00:46:32;;;;;;;;;;;;;;;15.48;63.68;95165.06;5071987;28;20021;-71
2022/10/01 00:49:07;;;;;;;;;;;;;;;15.75;62.91;95174.38;5073045;28;20009;-70
2022/10/01 00:51:37;;;;;;;;;;;;;;;15.91;62.29;95177.16;5072220;28;20044;-71
2022/10/01 00:54:32;;;;;;;;;;;;;;;15.99;61.84;95176.28;5070023;28;20112;-71
2022/10/01 00:56:58;;;;;;;;;;;;;;;15.96;61.11;95171.56;5035130;28;20044;-72
2022/10/01 00:59:24;;;;;;;;;;;;;;;15.49;61.61;95161.25;5072371;28;20067;-72
2022/10/01 01:01:49;;;;;;;;;;;;;;;15.72;61.67;95163.56;5070451;28;20068;-72
2022/10/01 01:04:17;;;;;;;;;;;;;;;15.71;61.58;95152.03;5068255;28;20112;-72
2022/10/01 01:06:52;;;;;;;;;;;;;;;15.92;60.98;95149.25;5065894;28;20017;-72
2022/10/01 01:09:17;;;;;;;;;;;;;;;16.02;60.93;95140.72;5070380;28;20074;-71
2022/10/01 01:11:51;;;;;;;;;;;;;;;16.06;60.61;95144.28;5073439;28;20009;-72
2022/10/01 01:14:28;;;;;;;;;;;;;;;16.02;60.29;95140.72;5071451;28;20014;-72
2022/10/01 01:16:57;;;;;;;;;;;;;;;15.88;60.20;95134.94;5070870;28;20017;-71
2022/10/01 01:19:31;;;;;;;;;;;;;;;15.72;60.43;95126.78;5071010;28;20017;-70
2022/10/01 01:21:59;;;;;;;;;;;;;;;15.56;60.50;95120.53;5070905;28;20054;-72
2022/10/01 01:24:44;;;;;;;;;;;;;;;15.39;60.92;95118.81;5071561;28;20075;-69
2022/10/01 01:27:24;;;;;;;;;;;;;;;15.18;61.34;95134.22;5070949;28;20028;-71
2022/10/01 01:29:56;;;;;;;;;;;;;;;14.62;63.39;95147.22;5070658;28;20127;-70
2022/10/01 01:32:31;;;;;;;;;;;;;;;14.65;63.39;95149.25;5071187;28;20063;-69
2022/10/01 01:35:01;;;;;;;;;;;;;;;14.49;63.49;95149.88;5071657;28;20024;-70
2022/10/01 01:37:27;;;;;;;;;;;;;;;14.38;64.16;95145.97;5072157;28;20115;-70
2022/10/01 01:39:55;;;;;;;;;;;;;;;14.25;64.58;95155.06;5070457;28;20019;-70
2022/10/01 01:42:24;;;;;;;;;;;;;;;14.32;64.58;95149.97;5072647;28;20013;-70
2022/10/01 01:44:52;;;;;;;;;;;;;;;14.25;64.28;95147.03;5071529;28;20017;-70
2022/10/01 01:47:20;;;;;;;;;;;;;;;14.08;64.47;95149.84;5072163;28;20385;-69
2022/10/01 01:49:49;;;;;;;;;;;;;;;14.05;65.62;95148.59;5070932;28;20020;-70
2022/10/01 01:52:14;;;;;;;;;;;;;;;13.92;66.34;95150.41;5072647;28;20354;-70
2022/10/01 01:54:41;;;;;;;;;;;;;;;14.04;66.09;95142.47;5069448;28;20024;-70
2022/10/01 01:57:07;;;;;;;;;;;;;;;14.01;65.52;95145.00;5071240;28;20435;-71
2022/10/01 01:59:33;;;;;;;;;;;;;;;14.00;65.35;95138.88;5069276;28;20796;-71
2022/10/01 02:01:59;;;;;;;;;;;;;;;14.00;65.24;95138.09;5069520;28;20018;-70
2022/10/01 02:04:24;;;;;;;;;;;;;;;13.99;65.27;95139.97;5071415;28;20492;-71
2022/10/01 02:07:02;;;;;;;;;;;;;;;13.97;65.12;95134.19;5071229;28;20039;-71
2022/10/01 02:09:47;;;;;;;;;;;;;;;13.96;64.98;95135.28;5068100;28;20013;-71
2022/10/01 02:12:20;;;;;;;;;;;;;;;13.93;64.47;95137.81;5071064;28;20017;-71
2022/10/01 02:14:48;;;;;;;;;;;;;;;13.88;64.55;95141.47;5071390;28;20112;-71
2022/10/01 02:17:19;;;;;;;;;;;;;;;13.85;64.39;95138.66;5071469;28;20020;-71
2022/10/01 02:19:55;;;;;;;;;;;;;;;13.77;64.47;95134.94;5070413;28;20040;-71
2022/10/01 02:22:27;;;;;;;;;;;;;;;13.69;64.58;95139.22;5070933;28;20013;-70
2022/10/01 02:24:55;;;;;;;;;;;;;;;13.61;64.67;95134.69;5069753;28;20123;-70
2022/10/01 02:27:43;;;;;;;;;;;;;;;13.54;64.78;95134.44;5069682;28;20028;-70
2022/10/01 02:30:09;;;;;;;;;;;;;;;13.46;64.91;95136.03;5068436;28;20013;-70
2022/10/01 02:32:36;;;;;;;;;;;;;;;13.46;64.61;95137.91;5071609;28;20014;-71
2022/10/01 02:35:02;;;;;;;;;;;;;;;13.44;64.70;95140.91;5069386;28;20016;-70
2022/10/01 02:37:27;;;;;;;;;;;;;;;13.41;64.71;95135.41;5069514;28;20237;-70
2022/10/01 02:39:56;;;;;;;;;;;;;;;13.34;65.01;95130.59;5069135;28;20381;-70
2022/10/01 02:42:24;;;;;;;;;;;;;;;13.27;65.05;95131.09;5051065;28;20508;-70
2022/10/01 02:44:51;;;;;;;;;;;;;;;13.20;65.03;95124.63;5057666;28;20024;-70
2022/10/01 02:47:16;;;;;;;;;;;;;;;13.13;65.02;95122.47;5068746;28;20022;-70
2022/10/01 02:49:41;;;;;;;;;;;;;;;13.12;64.90;95115.56;5069921;28;20067;-70
2022/10/01 02:52:06;;;;;;;;;;;;;;;13.06;64.99;95113.41;5071480;28;20014;-71
2022/10/01 02:54:55;;;;;;;;;;;;;;;13.04;64.93;95110.25;5070443;28;20103;-71
2022/10/01 02:57:23;;;;;;;;;;;;;;;13.00;65.09;95102.13;5064109;28;20060;-71
2022/10/01 03:00:06;;;;;;;;;;;;;;;12.95;65.00;95108.41;5068402;28;20025;-70
2022/10/01 03:02:31;;;;;;;;;;;;;;;12.91;65.15;95112.81;5071294;28;20025;-71
2022/10/01 03:04:57;;;;;;;;;;;;;;;12.88;65.24;95108.09;5069203;28;20016;-70
2022/10/01 03:07:26;;;;;;;;;;;;;;;12.85;65.16;95102.63;5067094;28;20025;-71
2022/10/01 03:09:51;;;;;;;;;;;;;;;12.82;65.15;95105.94;5070593;28;20104;-71
2022/10/01 03:12:17;;;;;;;;;;;;;;;12.77;65.00;95112.22;5068638;28;20143;-71
2022/10/01 03:14:43;;;;;;;;;;;;;;;12.74;65.03;95110.16;5067986;28;20059;-71
2022/10/01 03:17:08;;;;;;;;;;;;;;;12.70;64.88;95115.38;5069514;28;20520;-71
2022/10/01 03:19:34;;;;;;;;;;;;;;;12.65;65.32;95115.56;5069518;28;20045;-71
2022/10/01 03:21:59;;;;;;;;;;;;;;;12.64;65.20;95121.19;5070725;28;20016;-70
2022/10/01 03:24:24;;;;;;;;;;;;;;;12.60;65.11;95117.59;5068346;28;20020;-71
2022/10/01 03:26:50;;;;;;;;;;;;;;;12.60;64.84;95117.59;5068335;28;20086;-71
2022/10/01 03:29:15;;;;;;;;;;;;;;;12.56;64.94;95116.66;5069355;28;20017;-71
2022/10/01 03:31:40;;;;;;;;;;;;;;;12.53;65.03;95119.94;5067458;28;20024;-71
2022/10/01 03:34:05;;;;;;;;;;;;;;;12.49;65.22;95109.16;5068661;28;20020;-71
2022/10/01 03:36:31;;;;;;;;;;;;;;;12.46;65.28;95105.22;5068132;28;20017;-71
2022/10/01 03:38:56;;;;;;;;;;;;;;;12.44;65.27;95098.63;5067890;28;20355;-71
2022/10/01 03:41:21;;;;;;;;;;;;;;;12.42;65.12;95096.25;5068300;28;20016;-70
2022/10/01 03:43:46;;;;;;;;;;;;;;;12.40;65.21;95090.47;5068187;28;20020;-70
2022/10/01 03:46:12;;;;;;;;;;;;;;;12.38;64.94;95094.53;5068781;28;20068;-71
2022/10/01 03:48:37;;;;;;;;;;;;;;;12.36;65.01;95086.09;5068607;28;20023;-70
2022/10/01 03:51:02;;;;;;;;;;;;;;;12.35;65.06;95093.31;5067543;28;20017;-70
2022/10/01 03:53:30;;;;;;;;;;;;;;;11.16;65.36;94928.56;5070404;28;20489;-71
2022/10/01 03:55:55;;;;;;;;;;;;;;;12.31;65.40;95092.38;5066700;28;20066;-71
2022/10/01 03:58:22;;;;;;;;;;;;;;;12.30;65.20;95088.13;5068724;28;20016;-71
2022/10/01 04:00:47;;;;;;;;;;;;;;;12.27;65.29;95088.75;5066660;28;20108;-71
2022/10/01 04:03:13;;;;;;;;;;;;;;;12.27;64.83;95086.09;5070268;28;20454;-71
2022/10/01 04:05:39;;;;;;;;;;;;;;;12.27;64.99;95093.31;5066498;28;20021;-70
2022/10/01 04:08:04;;;;;;;;;;;;;;;12.28;64.87;95094.88;5068848;28;20108;-70
2022/10/01 04:10:30;;;;;;;;;;;;;;;12.27;64.99;95102.09;5066696;28;20034;-71
2022/10/01 04:12:55;;;;;;;;;;;;;;;12.28;65.44;95103.66;5067449;28;20017;-71
2022/10/01 04:15:21;;;;;;;;;;;;;;;12.32;65.28;95103.81;5068246;28;20047;-71
2022/10/01 04:17:46;;;;;;;;;;;;;;;12.32;65.15;95095.81;5069940;28;20051;-71
2022/10/01 04:20:11;;;;;;;;;;;;;;;12.34;65.37;95096.28;5067662;28;20449;-71
2022/10/01 04:22:40;;;;;;;;;;;;;;;12.34;65.30;95094.41;5070122;28;20010;-71
2022/10/01 04:25:06;;;;;;;;;;;;;;;12.34;65.07;95105.09;5069095;28;20020;-71
2022/10/01 04:27:32;;;;;;;;;;;;;;;12.37;65.21;95101.75;5068932;28;20029;-71
2022/10/01 04:29:57;;;;;;;;;;;;;;;12.40;65.07;95103.81;5068693;28;20062;-70
2022/10/01 04:32:22;;;;;;;;;;;;;;;12.42;65.33;95104.28;5066132;28;20036;-72
2022/10/01 04:34:53;;;;;;;;;;;;;;;12.42;65.08;95104.28;5067683;28;20113;-71
2022/10/01 04:37:22;;;;;;;;;;;;;;;12.36;65.16;95105.53;5070007;28;20154;-72
2022/10/01 04:39:47;;;;;;;;;;;;;;;12.37;65.54;95107.09;5068030;28;20107;-70
2022/10/01 04:42:12;;;;;;;;;;;;;;;12.40;65.38;95116.38;5068611;28;20126;-71
2022/10/01 04:44:38;;;;;;;;;;;;;;;12.43;65.27;95105.84;5067455;28;20434;-71
2022/10/01 04:47:04;;;;;;;;;;;;;;;12.36;64.72;95112.75;5069092;28;20028;-71
2022/10/01 04:49:31;;;;;;;;;;;;;;;12.43;65.26;95108.50;5068413;28;20010;-71
2022/10/01 04:51:56;;;;;;;;;;;;;;;12.43;64.81;95107.72;5067975;28;20016;-70
2022/10/01 04:54:21;;;;;;;;;;;;;;;12.40;64.87;95106.47;5068982;28;20016;-72
2022/10/01 04:56:47;;;;;;;;;;;;;;;12.31;64.70;95096.91;5067225;28;20505;-71
2022/10/01 04:59:12;;;;;;;;;;;;;;;12.36;64.50;95110.88;5068252;28;20024;-71
2022/10/01 05:01:37;;;;;;;;;;;;;;;12.32;64.45;95112.59;5067866;28;20025;-71
2022/10/01 05:04:02;;;;;;;;;;;;;;;12.13;65.10;95104.13;5068745;28;20486;-71
2022/10/01 05:06:27;;;;;;;;;;;;;;;12.31;65.25;95102.25;5068253;28;20543;-71
2022/10/01 05:08:52;;;;;;;;;;;;;;;12.33;64.90;95103.50;5068294;28;20013;-71
2022/10/01 05:11:18;;;;;;;;;;;;;;;12.39;64.95;95104.13;5068418;28;20105;-72
2022/10/01 05:13:43;;;;;;;;;;;;;;;12.42;64.64;95104.28;5068807;28;20096;-71
2022/10/01 05:16:09;;;;;;;;;;;;;;;12.47;64.72;95106.00;5058923;28;20021;-70
2022/10/01 05:18:34;;;;;;;;;;;;;;;12.52;64.56;95097.03;5047732;28;20013;-71
2022/10/01 05:21:03;;;;;;;;;;;;;;;12.58;64.70;95109.91;5071597;28;20013;-71
2022/10/01 05:23:28;;;;;;;;;;;;;;;12.63;64.60;95100.94;5072922;28;20013;-72
2022/10/01 05:25:53;;;;;;;;;;;;;;;12.69;64.44;95099.66;5070721;28;20102;-71
2022/10/01 05:28:19;;;;;;;;;;;;;;;12.74;64.39;95107.50;5070838;28;20021;-71
2022/10/01 05:30:44;;;;;;;;;;;;;;;12.77;64.27;95112.22;5069672;28;20017;-72
2022/10/01 05:33:09;;;;;;;;;;;;;;;12.87;64.05;95111.09;5071707;28;20013;-71
2022/10/01 05:35:34;;;;;;;;;;;;;;;12.95;64.22;95113.75;5071895;28;20052;-71
2022/10/01 05:38:01;;;;;;;;;;;;;;;13.04;63.97;95110.25;5072000;28;20046;-71
2022/10/01 05:40:27;;;;;;;;;;;;;;;13.14;63.91;95109.91;5069088;28;20024;-71
2022/10/01 05:42:57;;;;;;;;;;;;;;;13.24;63.54;95110.34;5072748;28;20008;-71
2022/10/01 05:45:22;;;;;;;;;;;;;;;13.36;63.47;95111.56;5070824;28;20558;-77
2022/10/01 05:47:48;;;;;;;;;;;;;;;13.49;63.07;95118.56;5070835;28;20017;-71
2022/10/01 05:50:14;;;;;;;;;;;;;;;13.62;62.91;95114.13;5071682;28;20017;-71
2022/10/01 05:52:46;;;;;;;;;;;;;;;13.75;62.93;95119.22;5066645;28;20109;-71
2022/10/01 05:55:11;;;;;;;;;;;;;;;13.89;62.30;95127.00;5055892;28;20020;-71
2022/10/01 05:57:37;;;;;;;;;;;;;;;13.98;62.05;95122.38;5071329;28;20017;-71
2022/10/01 06:00:03;;;;;;;;;;;;;;;14.12;62.09;95122.09;5070197;28;20378;-73
2022/10/01 06:02:28;;;;;;;;;;;;;;;14.26;61.72;95127.19;5070809;28;20017;-72
2022/10/01 06:04:53;;;;;;;;;;;;;;;14.36;61.14;95121.44;5070869;28;20060;-73
2022/10/01 06:07:18;;;;;;;;;;;;;;;14.46;61.02;95114.91;5070137;28;20507;-70
2022/10/01 06:09:44;;;;;;;;;;;;;;;14.64;60.62;95119.03;5069580;28;20133;-71
2022/10/01 06:12:09;;;;;;;;;;;;;;;14.77;60.46;95119.84;5069621;28;20058;-70
2022/10/01 06:14:34;;;;;;;;;;;;;;;14.88;59.90;95128.22;5070074;28;20492;-71
2022/10/01 06:16:59;;;;;;;;;;;;;;;15.00;59.86;95133.63;5071167;28;20023;-71
2022/10/01 06:19:25;;;;;;;;;;;;;;;15.12;59.69;95132.88;5068039;28;20018;-72
2022/10/01 06:21:50;;;;;;;;;;;;;;;15.24;59.21;95132.88;5057436;28;20104;-72
2022/10/01 06:24:15;;;;;;;;;;;;;;;15.33;58.89;95128.19;5067949;28;20016;-72
2022/10/01 06:26:40;;;;;;;;;;;;;;;15.44;58.41;95125.88;5071376;28;20021;-71
2022/10/01 06:29:06;;;;;;;;;;;;;;;15.55;58.45;95127.75;5078679;28;20545;-70
2022/10/01 06:31:31;;;;;;;;;;;;;;;15.65;57.82;95131.91;5066389;28;20115;-69
2022/10/01 06:33:56;;;;;;;;;;;;;;;15.77;57.16;95120.41;5071800;28;20020;-68
2022/10/01 06:36:21;;;;;;;;;;;;;;;15.89;57.06;95128.44;5072139;28;20013;-67
2022/10/01 06:38:47;;;;;;;;;;;;;;;16.04;56.98;95130.44;5065354;28;20059;-70
2022/10/01 06:41:12;;;;;;;;;;;;;;;16.18;56.61;95122.03;5076034;28;20396;-65
2022/10/01 06:43:38;;;;;;;;;;;;;;;16.31;56.23;95120.06;5067385;28;20576;-69
2022/10/01 06:46:04;;;;;;;;;;;;;;;16.40;55.73;95128.00;5057269;28;20355;-69
2022/10/01 06:48:29;;;;;;;;;;;;;;;16.48;54.74;95129.75;5065265;28;20424;-68
2022/10/01 06:50:55;;;;;;;;;;;;;;;16.61;55.61;95132.03;5064869;28;20092;-70
2022/10/01 06:53:20;;;;;;;;;;;;;;;16.66;54.85;95130.25;5066778;28;20096;-72
2022/10/01 06:55:46;;;;;;;;;;;;;;;16.79;54.78;95131.78;5066539;28;20008;-71
2022/10/01 06:58:13;;;;;;;;;;;;;;;16.91;54.47;95131.72;5064293;28;20020;-67
2022/10/01 07:00:38;;;;;;;;;;;;;;;17.03;53.77;95133.56;5053152;28;20394;-66
2022/10/01 07:03:05;;;;;;;;;;;;;;;17.17;53.50;95127.75;5060971;28;20028;-69
2022/10/01 07:05:30;;;;;;;;;;;;;;;17.28;53.24;95124.22;5068313;28;20020;-67
2022/10/01 07:07:55;;;;;;;;;;;;;;;17.40;52.88;95123.34;5062505;28;20014;-66
2022/10/01 07:10:22;;;;;;;;;;;;;;;17.54;52.74;95121.00;5057134;28;20009;-67
2022/10/01 07:12:50;;;;;;;;;;;;;;;17.59;52.20;95112.66;5062513;28;20015;-65
2022/10/01 07:15:16;;;;;;;;;;;;;;;17.67;51.84;95109.00;5056301;28;20017;-69
2022/10/01 07:17:43;;;;;;;;;;;;;;;17.80;51.61;95104.31;5065476;28;20013;-68
2022/10/01 07:20:08;;;;;;;;;;;;;;;17.93;51.42;95105.00;5069322;28;20020;-68
2022/10/01 07:22:34;;;;;;;;;;;;;;;18.03;51.45;95093.69;5067334;28;20021;-65
2022/10/01 07:24:59;;;;;;;;;;;;;;;18.16;50.86;95097.78;5067502;28;20013;-66
2022/10/01 07:27:24;;;;;;;;;;;;;;;18.25;50.60;95100.28;5067828;28;20428;-66
2022/10/01 07:29:49;;;;;;;;;;;;;;;18.27;50.41;95097.22;5065999;28;20013;-67
2022/10/01 07:32:14;;;;;;;;;;;;;;;18.36;50.33;95093.19;5068700;28;20019;-67
2022/10/01 07:34:40;;;;;;;;;;;;;;;18.39;50.17;95081.72;5065180;28;20064;-67
2022/10/01 07:37:05;;;;;;;;;;;;;;;18.45;50.05;95083.00;5068532;28;20056;-67
2022/10/01 07:39:31;;;;;;;;;;;;;;;18.54;49.73;95082.00;5067927;28;20021;-66
2022/10/01 07:41:57;;;;;;;;;;;;;;;18.58;49.38;95078.25;5066729;28;20496;-66
2022/10/01 07:44:22;;;;;;;;;;;;;;;18.66;48.98;95079.16;5067113;28;20111;-67
2022/10/01 07:46:48;;;;;;;;;;;;;;;18.78;48.82;95089.78;5067987;28;20572;-66
2022/10/01 07:49:13;;;;;;;;;;;;;;;18.88;48.42;95088.44;5068922;28;20100;-65
2022/10/01 07:51:42;;;;;;;;;;;;;;;19.01;48.63;95087.13;5068172;28;20104;-64
2022/10/01 07:54:07;;;;;;;;;;;;;;;19.13;47.73;95078.09;5060810;28;20017;-65
2022/10/01 07:56:32;;;;;;;;;;;;;;;19.18;47.55;95086.66;5069056;28;20071;-65
2022/10/01 07:58:58;;;;;;;;;;;;;;;19.23;47.00;95075.56;5068316;28;20124;-65
2022/10/01 08:01:24;;;;;;;;;;;;;;;19.31;47.02;95075.69;5067400;28;20021;-65
2022/10/01 08:03:50;;;;;;;;;;;;;;;19.48;46.88;95069.78;5066503;28;20013;-66
2022/10/01 08:06:16;;;;;;;;;;;;;;;19.52;46.47;95065.22;5066747;28;20431;-67
2022/10/01 08:08:41;;;;;;;;;;;;;;;19.45;44.97;95073.22;5069733;28;20067;-67
2022/10/01 08:11:09;;;;;;;;;;;;;;;19.60;45.73;95074.22;5074711;28;20023;-67
2022/10/01 08:13:34;;;;;;;;;;;;;;;19.66;45.17;95062.78;5075200;28;20032;-71
2022/10/01 08:16:01;;;;;;;;;;;;;;;19.73;45.36;95062.88;5072162;28;20013;-68
2022/10/01 08:18:26;;;;;;;;;;;;;;;19.82;45.13;95059.16;5068086;28;20016;-69
2022/10/01 08:20:52;;;;;;;;;;;;;;;19.85;44.84;95061.09;5067827;28;20021;-69
2022/10/01 08:23:17;;;;;;;;;;;;;;;20.00;44.71;95065.53;5060353;28;20389;-71
2022/10/01 08:25:43;;;;;;;;;;;;;;;20.03;44.42;95059.44;5053901;28;20106;-67
2022/10/01 08:28:09;;;;;;;;;;;;;;;20.03;43.67;95064.06;5057652;28;20033;-69
2022/10/01 08:30:35;;;;;;;;;;;;;;;19.95;43.68;95055.84;5054078;28;20691;-72
2022/10/01 08:33:01;;;;;;;;;;;;;;;19.91;43.30;95052.34;5058730;28;20067;-72
2022/10/01 08:35:27;;;;;;;;;;;;;;;19.96;43.65;95051.22;5057317;28;20065;-70
2022/10/01 08:37:54;;;;;;;;;;;;;;;19.84;43.60;95046.81;5049515;28;20017;-71
2022/10/01 08:40:20;;;;;;;;;;;;;;;19.70;43.32;95046.63;5058718;28;20066;-71
2022/10/01 08:43:18;;;;;;;;;;;;;;;19.05;42.69;95014.41;5069078;28;20017;-70
2022/10/01 08:45:48;;;;;;;;;;;;;;;19.57;43.13;95048.72;5024467;28;20012;-71
2022/10/01 08:48:16;;;;;;;;;;;;;;;19.76;43.42;95033.59;5068611;28;20531;-71
2022/10/01 08:50:56;;;;;;;;;;;;;;;18.68;44.21;95053.47;5069162;28;20024;-70
2022/10/01 08:53:30;;;;;;;;;;;;;;;19.00;44.61;95047.06;5069527;28;20090;-70
2022/10/01 08:55:57;;;;;;;;;;;;;;;19.32;44.42;95040.25;5072231;28;20139;-71
2022/10/01 08:58:25;;;;;;;;;;;;;;;19.57;43.77;95045.25;5069505;28;20024;-70
2022/10/01 09:00:51;;;;;;;;;;;;;;;18.50;45.14;95049.63;5073440;28;20013;-70
2022/10/01 09:03:17;;;;;;;;;;;;;;;19.38;44.49;95040.72;5074098;28;20017;-70
2022/10/01 09:05:58;;;;;;;;;;;;;;;19.77;43.32;95049.44;5073388;28;20017;-71
2022/10/01 09:08:42;;;;;;;;;;;;;;;19.73;42.10;95046.69;5071538;28;20016;-68
2022/10/01 09:11:11;;;;;;;;;;;;;;;19.51;43.00;95036.72;5073207;28;20366;-71
2022/10/01 09:13:51;;;;;;;;;;;;;;;18.77;44.46;95041.66;5072556;28;20556;-70
2022/10/01 09:16:34;;;;;;;;;;;;;;;19.69;43.38;95035.06;5076158;28;20377;-71
2022/10/01 09:19:02;;;;;;;;;;;;;;;20.02;42.58;95036.28;5079683;28;20392;-71
2022/10/01 09:21:39;;;;;;;;;;;;;;;20.28;41.84;95034.66;5078501;28;20039;-69
2022/10/01 09:24:15;;;;;;;;;;;;;;;20.42;41.70;95037.50;5072133;28;20359;-71
2022/10/01 09:26:42;;;;;;;;;;;;;;;20.42;41.09;95048.31;5070827;28;20016;-71
2022/10/01 09:29:12;;;;;;;;;;;;;;;19.87;41.97;95048.81;5074180;28;20028;-75
2022/10/01 09:31:44;;;;;;;;;;;;;;;19.35;42.96;95036.09;5090460;28;20099;-70
2022/10/01 09:34:18;;;;;;;;;;;;;;;19.69;42.23;95035.06;5072212;28;20562;-72
2022/10/01 09:37:17;;;;;;;;;;;;;;;19.47;43.22;95038.56;5072824;28;20016;-73
2022/10/01 09:40:11;;;;;;;;;;;;;;;18.70;44.46;95053.09;5060229;28;20019;-70
2022/10/01 09:42:36;;;;;;;;;;;;;;;19.04;44.36;95054.09;5063974;28;20020;-71
2022/10/01 09:45:02;;;;;;;;;;;;;;;19.04;44.48;95050.59;5069471;28;20018;-76
2022/10/01 09:47:27;;;;;;;;;;;;;;;18.87;44.38;95047.22;5071807;28;20116;-70
2022/10/01 09:49:52;;;;;;;;;;;;;;;19.55;44.61;95042.94;5072278;28;20016;-71
2022/10/01 09:52:25;;;;;;;;;;;;;;;19.94;44.27;95035.38;5071995;28;20060;-69
2022/10/01 09:54:57;;;;;;;;;;;;;;;20.17;43.45;95038.00;5071875;28;20415;-68
2022/10/01 09:57:32;;;;;;;;;;;;;;;20.29;43.28;95033.50;5072985;28;20059;-68
2022/10/01 10:00:10;;;;;;;;;;;;;;;20.31;43.97;95037.38;5078874;28;20020;-72
2022/10/01 10:02:40;;;;;;;;;;;;;;;20.55;44.53;95041.53;5093044;28;20009;-68
2022/10/01 10:05:12;;;;;;;;;;;;;;;20.51;44.62;95038.03;5083585;28;20423;-70
2022/10/01 10:07:41;;;;;;;;;;;;;;;19.96;44.97;95035.81;5071473;28;20114;-68
2022/10/01 10:10:20;;;;;;;;;;;;;;;20.10;44.62;95031.72;5072407;28;20016;-70
2022/10/01 10:12:46;;;;;;;;;;;;;;;20.18;44.77;95044.19;5072563;28;20008;-72
2022/10/01 10:15:16;;;;;;;;;;;;;;;19.11;46.91;95051.50;5070953;28;20425;-73
2022/10/01 10:17:43;;;;;;;;;;;;;;;19.48;47.33;95042.81;5071407;28;20016;-72
2022/10/01 10:20:19;;;;;;;;;;;;;;;19.07;48.30;95050.66;5071018;28;20013;-71
2022/10/01 10:22:45;;;;;;;;;;;;;;;19.37;48.46;95050.75;5071757;28;20043;-71
2022/10/01 10:25:12;;;;;;;;;;;;;;;19.24;48.70;95049.38;5072362;28;20009;-71
2022/10/01 10:27:50;;;;;;;;;;;;;;;19.14;48.58;95013.03;5072083;28;20021;-71
2022/10/01 10:30:16;;;;;;;;;;;;;;;19.42;48.93;95039.66;5076929;28;20013;-71
2022/10/01 10:32:42;;;;;;;;;;;;;;;19.39;49.18;95042.28;5078531;28;20474;-71
2022/10/01 10:35:09;;;;;;;;;;;;;;;19.34;49.39;95040.66;5070847;28;20057;-70
2022/10/01 10:37:43;;;;;;;;;;;;;;;19.31;49.80;95048.72;5072431;28;20047;-71
2022/10/01 10:40:15;;;;;;;;;;;;;;;19.14;50.51;95042.69;5071713;28;20012;-71
2022/10/01 10:42:46;;;;;;;;;;;;;;;19.06;50.36;95041.00;5079052;28;20021;-70
2022/10/01 10:45:16;;;;;;;;;;;;;;;19.04;50.87;95039.78;5068308;28;20021;-70
2022/10/01 10:47:46;;;;;;;;;;;;;;;18.83;49.57;95056.38;5071132;28;20021;-70
2022/10/01 10:50:30;;;;;;;;;;;;;;;18.62;51.06;95048.66;5070605;28;20013;-68
2022/10/01 10:52:56;;;;;;;;;;;;;;;18.12;51.46;95058.50;5071081;28;20477;-69
2022/10/01 10:55:22;;;;;;;;;;;;;;;18.27;52.30;95054.97;5087326;28;20013;-70
2022/10/01 10:57:47;;;;;;;;;;;;;;;18.33;53.63;95061.63;5070624;28;20014;-71
2022/10/01 11:00:17;;;;;;;;;;;;;;;18.37;55.55;95058.97;5067283;28;20021;-69
2022/10/01 11:02:48;;;;;;;;;;;;;;;18.04;54.75;95072.94;5071509;28;20496;-69
2022/10/01 11:05:19;;;;;;;;;;;;;;;18.01;57.28;95068.25;5070423;28;20021;-68
2022/10/01 11:07:45;;;;;;;;;;;;;;;17.90;57.67;95062.63;5071660;28;20017;-69
2022/10/01 11:10:10;;;;;;;;;;;;;;;17.81;57.62;95067.44;5070429;28;20017;-70
2022/10/01 11:12:42;;;;;;;;;;;;;;;17.37;56.87;95064.91;5071579;28;20009;-70
2022/10/01 11:15:14;;;;;;;;;;;;;;;16.79;59.14;95070.78;5069351;28;20074;-69
2022/10/01 11:17:54;;;;;;;;;;;;;;;16.95;59.47;95081.56;5070715;28;20013;-71
2022/10/01 11:20:32;;;;;;;;;;;;;;;16.43;59.78;95079.78;5056422;28;20018;-69
2022/10/01 11:23:00;;;;;;;;;;;;;;;16.75;61.52;95077.97;5050994;28;20016;-68
2022/10/01 11:25:44;;;;;;;;;;;;;;;17.03;61.38;95077.91;5051355;28;20059;-68
2022/10/01 11:28:17;;;;;;;;;;;;;;;17.23;61.40;95078.78;5049784;28;20107;-71
2022/10/01 11:30:53;;;;;;;;;;;;;;;17.41;62.04;95084.59;5070902;28;20019;-71
2022/10/01 11:33:30;;;;;;;;;;;;;;;17.41;61.27;95079.97;5089861;28;20042;-71
2022/10/01 11:36:08;;;;;;;;;;;;;;;17.37;60.67;95076.44;5091229;28;20035;-71
2022/10/01 11:38:45;;;;;;;;;;;;;;;17.40;60.26;95070.38;5080705;28;20072;-71
2022/10/01 11:41:22;;;;;;;;;;;;;;;17.44;59.53;95067.75;5069506;28;20546;-70
2022/10/01 11:43:55;;;;;;;;;;;;;;;17.49;59.76;95069.38;5069594;28;20012;-70
2022/10/01 11:46:48;;;;;;;;;;;;;;;17.53;59.35;95079.09;5081559;28;20020;-70
2022/10/01 11:49:25;;;;;;;;;;;;;;;17.54;58.84;95087.94;5074384;28;20027;-72
2022/10/01 11:52:02;;;;;;;;;;;;;;;17.45;58.49;95096.19;5069304;28;20096;-70
2022/10/01 11:54:29;;;;;;;;;;;;;;;17.40;57.95;95093.75;5070469;28;20020;-70
2022/10/01 11:59:48;;;;;;;;;;;;;;;17.32;59.40;95100.09;5069323;28;20028;-71
2022/10/01 12:02:18;;;;;;;;;;;;;;;17.32;59.28;95103.56;5069982;28;20017;-69
2022/10/01 12:04:52;;;;;;;;;;;;;;;17.35;59.18;95100.19;5070564;28;20005;-70
2022/10/01 12:07:25;;;;;;;;;;;;;;;17.39;59.13;95108.34;5068498;28;20024;-69
2022/10/01 12:09:53;;;;;;;;;;;;;;;17.43;59.65;95098.44;5068463;28;20014;-70
2022/10/01 12:12:25;;;;;;;;;;;;;;;17.45;58.86;95088.13;5070510;28;20013;-68
2022/10/01 12:15:08;;;;;;;;;;;;;;;17.30;58.87;95097.78;5070256;28;20011;-71
2022/10/01 12:17:38;;;;;;;;;;;;;;;17.29;58.57;95104.25;5069481;28;20078;-71
2022/10/01 12:20:12;;;;;;;;;;;;;;;17.32;58.66;95092.03;5069914;28;20009;-72
2022/10/01 12:22:39;;;;;;;;;;;;;;;17.40;59.10;95083.00;5070273;28;20019;-72
2022/10/01 12:25:09;;;;;;;;;;;;;;;17.41;58.76;95090.75;5068126;28;20063;-73
2022/10/01 12:27:35;;;;;;;;;;;;;;;17.40;57.94;95093.75;5069224;28;20453;-72
2022/10/01 12:30:06;;;;;;;;;;;;;;;17.52;58.05;95085.59;5072255;28;20059;-73
2022/10/01 12:32:38;;;;;;;;;;;;;;;17.53;57.88;95081.00;5073786;28;20028;-72
2022/10/01 12:35:04;;;;;;;;;;;;;;;17.56;57.85;95094.53;5073134;28;20017;-72
2022/10/01 12:37:35;;;;;;;;;;;;;;;17.45;57.05;95095.41;5072581;28;20436;-72
2022/10/01 12:40:01;;;;;;;;;;;;;;;17.57;57.37;95090.72;5072441;28;20016;-71
2022/10/01 12:42:35;;;;;;;;;;;;;;;17.54;57.79;95091.41;5074658;28;20062;-70
2022/10/01 12:45:19;;;;;;;;;;;;;;;17.55;58.84;95084.88;5073878;28;20019;-72
2022/10/01 12:47:48;;;;;;;;;;;;;;;17.27;58.08;95093.09;5092092;28;20116;-71
2022/10/01 12:50:34;;;;;;;;;;;;;;;17.47;58.82;95085.88;5094218;28;20104;-72
2022/10/01 12:53:09;;;;;;;;;;;;;;;17.62;58.45;95089.69;5086809;28;20017;-72
2022/10/01 12:55:55;;;;;;;;;;;;;;;17.63;57.57;95083.16;5076659;28;20376;-72
2022/10/01 12:58:39;;;;;;;;;;;;;;;17.46;58.59;95073.56;5056443;28;20017;-73